sensor_id;sensor_type;location;lat;lon;timestamp;temperature;humidity
18823;DHT22;9540;51.550;7.980;2023-07-20T00:01:51;14.90;99.90
18823;DHT22;9540;51.550;7.980;2023-07-20T00:04:18;14.90;99.90
18823;DHT22;9540;51.550;7.980;2023-07-20T00:06:45;14.90;99.90
18823;DHT22;9540;51.550;7.980;2023-07-20T00:09:12;14.90;99.90
18823;DHT22;9540;51.550;7.980;2023-07-20T00:11:39;14.90;99.90
18823;DHT22;9540;51.550;7.980;2023-07-20T00:14:07;14.90;99.90
18823;DHT22;9540;51.550;7.980;2023-07-20T00:16:33;14.90;99.90
18823;DHT22;9540;51.550;7.980;2023-07-20T00:19:02;14.90;99.90
18823;DHT22;9540;51.550;7.980;2023-07-20T00:21:30;14.90;99.90
18823;DHT22;9540;51.550;7.980;2023-07-20T00:23:57;14.90;99.90
18823;DHT22;9540;51.550;7.980;2023-07-20T00:26:24;14.90;99.90
18823;DHT22;9540;51.550;7.980;2023-07-20T00:28:51;14.90;99.90
18823;DHT22;9540;51.550;7.980;2023-07-20T00:31:18;14.90;99.90
18823;DHT22;9540;51.550;7.980;2023-07-20T00:33:45;14.90;99.90
18823;DHT22;9540;51.550;7.980;2023-07-20T00:36:14;14.90;99.90
18823;DHT22;9540;51.550;7.980;2023-07-20T00:38:42;14.90;99.90
18823;DHT22;9540;51.550;7.980;2023-07-20T00:41:09;14.90;99.90
18823;DHT22;9540;51.550;7.980;2023-07-20T00:43:36;14.90;99.90
18823;DHT22;9540;51.550;7.980;2023-07-20T00:46:03;14.90;99.90
18823;DHT22;9540;51.550;7.980;2023-07-20T00:48:31;14.90;99.90
18823;DHT22;9540;51.550;7.980;2023-07-20T00:50:58;14.90;99.90
18823;DHT22;9540;51.550;7.980;2023-07-20T00:53:27;14.90;99.90
18823;DHT22;9540;51.550;7.980;2023-07-20T00:55:54;14.90;99.90
18823;DHT22;9540;51.550;7.980;2023-07-20T00:58:22;14.90;99.90
18823;DHT22;9540;51.550;7.980;2023-07-20T01:00:49;14.90;99.90
18823;DHT22;9540;51.550;7.980;2023-07-20T01:03:16;14.90;99.90
18823;DHT22;9540;51.550;7.980;2023-07-20T01:05:51;14.90;99.90
18823;DHT22;9540;51.550;7.980;2023-07-20T01:08:27;14.90;99.90
18823;DHT22;9540;51.550;7.980;2023-07-20T01:11:01;14.90;99.90
18823;DHT22;9540;51.550;7.980;2023-07-20T01:13:31;14.90;99.90
18823;DHT22;9540;51.550;7.980;2023-07-20T01:16:01;14.90;99.90
18823;DHT22;9540;51.550;7.980;2023-07-20T01:18:28;14.90;99.90
18823;DHT22;9540;51.550;7.980;2023-07-20T01:20:59;14.90;99.90
18823;DHT22;9540;51.550;7.980;2023-07-20T01:23:46;14.90;99.90
18823;DHT22;9540;51.550;7.980;2023-07-20T01:29:34;14.90;99.90
18823;DHT22;9540;51.550;7.980;2023-07-20T01:32:06;14.90;99.90
18823;DHT22;9540;51.550;7.980;2023-07-20T01:34:36;14.90;99.90
18823;DHT22;9540;51.550;7.980;2023-07-20T01:37:03;14.90;99.90
18823;DHT22;9540;51.550;7.980;2023-07-20T01:39:32;14.90;99.90
18823;DHT22;9540;51.550;7.980;2023-07-20T01:42:00;14.90;99.90
18823;DHT22;9540;51.550;7.980;2023-07-20T01:44:27;14.90;99.90
18823;DHT22;9540;51.550;7.980;2023-07-20T01:46:55;15.00;99.90
18823;DHT22;9540;51.550;7.980;2023-07-20T01:49:23;15.00;99.90
18823;DHT22;9540;51.550;7.980;2023-07-20T01:51:50;15.00;99.90
18823;DHT22;9540;51.550;7.980;2023-07-20T01:54:17;14.90;99.90
18823;DHT22;9540;51.550;7.980;2023-07-20T01:56:44;15.00;99.90
18823;DHT22;9540;51.550;7.980;2023-07-20T01:59:11;14.90;99.90
18823;DHT22;9540;51.550;7.980;2023-07-20T02:01:38;14.90;99.90
18823;DHT22;9540;51.550;7.980;2023-07-20T02:04:05;14.90;99.90
18823;DHT22;9540;51.550;7.980;2023-07-20T02:06:33;14.90;99.90
18823;DHT22;9540;51.550;7.980;2023-07-20T02:09:00;14.90;99.90
18823;DHT22;9540;51.550;7.980;2023-07-20T02:11:27;14.90;99.90
18823;DHT22;9540;51.550;7.980;2023-07-20T02:13:54;14.90;99.90
18823;DHT22;9540;51.550;7.980;2023-07-20T02:16:22;14.90;99.90
18823;DHT22;9540;51.550;7.980;2023-07-20T02:18:49;14.90;99.90
18823;DHT22;9540;51.550;7.980;2023-07-20T02:21:16;14.90;99.90
18823;DHT22;9540;51.550;7.980;2023-07-20T02:23:45;14.90;99.90
18823;DHT22;9540;51.550;7.980;2023-07-20T02:26:12;14.90;99.90
18823;DHT22;9540;51.550;7.980;2023-07-20T02:28:39;14.90;99.90
18823;DHT22;9540;51.550;7.980;2023-07-20T02:31:06;14.80;99.90
18823;DHT22;9540;51.550;7.980;2023-07-20T02:33:33;14.80;99.90
18823;DHT22;9540;51.550;7.980;2023-07-20T02:36:00;14.80;99.90
18823;DHT22;9540;51.550;7.980;2023-07-20T02:38:27;14.80;99.90
18823;DHT22;9540;51.550;7.980;2023-07-20T02:40:56;14.80;99.90
18823;DHT22;9540;51.550;7.980;2023-07-20T02:43:24;14.80;99.90
18823;DHT22;9540;51.550;7.980;2023-07-20T02:45:51;14.80;99.90
18823;DHT22;9540;51.550;7.980;2023-07-20T02:48:18;14.80;99.90
18823;DHT22;9540;51.550;7.980;2023-07-20T02:50:45;14.80;99.90
18823;DHT22;9540;51.550;7.980;2023-07-20T02:53:12;14.70;99.90
18823;DHT22;9540;51.550;7.980;2023-07-20T02:55:39;14.70;99.90
18823;DHT22;9540;51.550;7.980;2023-07-20T02:58:08;14.70;99.90
18823;DHT22;9540;51.550;7.980;2023-07-20T03:00:35;14.70;99.90
18823;DHT22;9540;51.550;7.980;2023-07-20T03:03:02;14.70;99.90
18823;DHT22;9540;51.550;7.980;2023-07-20T03:05:29;14.70;99.90
18823;DHT22;9540;51.550;7.980;2023-07-20T03:07:56;14.80;99.90
18823;DHT22;9540;51.550;7.980;2023-07-20T03:10:28;14.80;99.90
18823;DHT22;9540;51.550;7.980;2023-07-20T03:12:55;14.80;99.90
18823;DHT22;9540;51.550;7.980;2023-07-20T03:15:24;14.80;99.90
18823;DHT22;9540;51.550;7.980;2023-07-20T03:17:51;14.80;99.90
18823;DHT22;9540;51.550;7.980;2023-07-20T03:20:18;14.70;99.90
18823;DHT22;9540;51.550;7.980;2023-07-20T03:22:45;14.70;99.90
18823;DHT22;9540;51.550;7.980;2023-07-20T03:25:12;14.70;99.90
18823;DHT22;9540;51.550;7.980;2023-07-20T03:27:39;14.70;99.90
18823;DHT22;9540;51.550;7.980;2023-07-20T03:30:07;14.60;99.90
18823;DHT22;9540;51.550;7.980;2023-07-20T03:32:36;14.60;99.90
18823;DHT22;9540;51.550;7.980;2023-07-20T03:35:04;14.60;99.90
18823;DHT22;9540;51.550;7.980;2023-07-20T03:37:31;14.60;99.90
18823;DHT22;9540;51.550;7.980;2023-07-20T03:40:00;14.60;99.90
18823;DHT22;9540;51.550;7.980;2023-07-20T03:42:27;14.60;99.90
18823;DHT22;9540;51.550;7.980;2023-07-20T03:44:54;14.60;99.90
18823;DHT22;9540;51.550;7.980;2023-07-20T03:47:22;14.60;99.90
18823;DHT22;9540;51.550;7.980;2023-07-20T03:49:51;14.60;99.90
18823;DHT22;9540;51.550;7.980;2023-07-20T03:52:18;14.60;99.90
18823;DHT22;9540;51.550;7.980;2023-07-20T03:54:45;14.50;99.90
18823;DHT22;9540;51.550;7.980;2023-07-20T03:57:12;14.50;99.90
18823;DHT22;9540;51.550;7.980;2023-07-20T03:59:39;14.50;99.90
18823;DHT22;9540;51.550;7.980;2023-07-20T04:02:06;14.50;99.90
18823;DHT22;9540;51.550;7.980;2023-07-20T04:04:34;14.50;99.90
18823;DHT22;9540;51.550;7.980;2023-07-20T04:07:02;14.50;99.90
18823;DHT22;9540;51.550;7.980;2023-07-20T04:09:31;14.40;99.90
18823;DHT22;9540;51.550;7.980;2023-07-20T04:11:58;14.30;99.90
18823;DHT22;9540;51.550;7.980;2023-07-20T04:14:25;14.30;99.90
18823;DHT22;9540;51.550;7.980;2023-07-20T04:16:52;14.10;99.90
18823;DHT22;9540;51.550;7.980;2023-07-20T04:19:20;14.10;99.90
18823;DHT22;9540;51.550;7.980;2023-07-20T04:21:46;14.00;99.90
18823;DHT22;9540;51.550;7.980;2023-07-20T04:24:15;14.00;99.90
18823;DHT22;9540;51.550;7.980;2023-07-20T04:26:42;14.00;99.90
18823;DHT22;9540;51.550;7.980;2023-07-20T04:29:09;14.00;99.90
18823;DHT22;9540;51.550;7.980;2023-07-20T04:31:36;14.00;99.90
18823;DHT22;9540;51.550;7.980;2023-07-20T04:34:03;14.00;99.90
18823;DHT22;9540;51.550;7.980;2023-07-20T04:36:30;14.00;99.90
18823;DHT22;9540;51.550;7.980;2023-07-20T04:38:57;14.00;99.90
18823;DHT22;9540;51.550;7.980;2023-07-20T04:41:25;14.00;99.90
18823;DHT22;9540;51.550;7.980;2023-07-20T04:43:52;14.00;99.90
18823;DHT22;9540;51.550;7.980;2023-07-20T04:46:20;14.10;99.90
18823;DHT22;9540;51.550;7.980;2023-07-20T04:48:47;14.10;99.90
18823;DHT22;9540;51.550;7.980;2023-07-20T04:51:14;14.10;99.90
18823;DHT22;9540;51.550;7.980;2023-07-20T04:53:43;14.10;99.90
18823;DHT22;9540;51.550;7.980;2023-07-20T04:56:10;14.10;99.90
18823;DHT22;9540;51.550;7.980;2023-07-20T04:58:38;14.10;99.90
18823;DHT22;9540;51.550;7.980;2023-07-20T05:01:05;14.10;99.90
18823;DHT22;9540;51.550;7.980;2023-07-20T05:03:32;14.20;99.90
18823;DHT22;9540;51.550;7.980;2023-07-20T05:05:59;14.20;99.90
18823;DHT22;9540;51.550;7.980;2023-07-20T05:08:26;14.20;99.90
18823;DHT22;9540;51.550;7.980;2023-07-20T05:10:53;14.20;99.90
18823;DHT22;9540;51.550;7.980;2023-07-20T05:13:20;14.20;99.90
18823;DHT22;9540;51.550;7.980;2023-07-20T05:15:51;14.10;99.90
18823;DHT22;9540;51.550;7.980;2023-07-20T05:18:18;14.20;99.90
18823;DHT22;9540;51.550;7.980;2023-07-20T05:20:46;14.20;99.90
18823;DHT22;9540;51.550;7.980;2023-07-20T05:23:13;14.20;99.90
18823;DHT22;9540;51.550;7.980;2023-07-20T05:25:40;14.20;99.90
18823;DHT22;9540;51.550;7.980;2023-07-20T05:28:07;14.20;99.90
18823;DHT22;9540;51.550;7.980;2023-07-20T05:30:34;14.20;99.90
18823;DHT22;9540;51.550;7.980;2023-07-20T05:33:03;14.20;99.90
18823;DHT22;9540;51.550;7.980;2023-07-20T05:35:28;14.20;99.90
18823;DHT22;9540;51.550;7.980;2023-07-20T05:37:55;14.20;99.90
18823;DHT22;9540;51.550;7.980;2023-07-20T05:40:22;14.20;99.90
18823;DHT22;9540;51.550;7.980;2023-07-20T05:42:49;14.20;99.90
18823;DHT22;9540;51.550;7.980;2023-07-20T05:45:17;14.20;99.90
18823;DHT22;9540;51.550;7.980;2023-07-20T05:47:44;14.20;99.90
18823;DHT22;9540;51.550;7.980;2023-07-20T05:50:13;14.20;99.90
18823;DHT22;9540;51.550;7.980;2023-07-20T05:52:40;14.20;99.90
18823;DHT22;9540;51.550;7.980;2023-07-20T05:55:08;14.30;99.90
18823;DHT22;9540;51.550;7.980;2023-07-20T05:57:35;14.20;99.90
18823;DHT22;9540;51.550;7.980;2023-07-20T06:00:06;14.30;99.90
18823;DHT22;9540;51.550;7.980;2023-07-20T06:02:33;14.30;99.90
18823;DHT22;9540;51.550;7.980;2023-07-20T06:05:01;14.40;99.90
18823;DHT22;9540;51.550;7.980;2023-07-20T06:07:29;14.50;99.90
18823;DHT22;9540;51.550;7.980;2023-07-20T06:09:56;14.50;99.90
18823;DHT22;9540;51.550;7.980;2023-07-20T06:12:24;14.60;99.90
18823;DHT22;9540;51.550;7.980;2023-07-20T06:14:50;14.50;99.90
18823;DHT22;9540;51.550;7.980;2023-07-20T06:17:17;14.50;99.90
18823;DHT22;9540;51.550;7.980;2023-07-20T06:19:44;14.50;99.90
18823;DHT22;9540;51.550;7.980;2023-07-20T06:22:11;14.50;99.90
18823;DHT22;9540;51.550;7.980;2023-07-20T06:24:40;14.50;99.90
18823;DHT22;9540;51.550;7.980;2023-07-20T06:27:07;14.50;99.90
18823;DHT22;9540;51.550;7.980;2023-07-20T06:29:34;14.50;99.90
18823;DHT22;9540;51.550;7.980;2023-07-20T06:32:01;14.50;99.90
18823;DHT22;9540;51.550;7.980;2023-07-20T06:34:27;14.50;99.90
18823;DHT22;9540;51.550;7.980;2023-07-20T06:36:55;14.60;99.90
18823;DHT22;9540;51.550;7.980;2023-07-20T06:39:22;14.60;99.90
18823;DHT22;9540;51.550;7.980;2023-07-20T06:41:51;14.60;99.90
18823;DHT22;9540;51.550;7.980;2023-07-20T06:44:18;14.60;99.90
18823;DHT22;9540;51.550;7.980;2023-07-20T06:46:45;14.60;99.90
18823;DHT22;9540;51.550;7.980;2023-07-20T06:49:24;14.70;99.90
18823;DHT22;9540;51.550;7.980;2023-07-20T06:51:51;14.60;99.90
18823;DHT22;9540;51.550;7.980;2023-07-20T06:54:17;14.60;99.90
18823;DHT22;9540;51.550;7.980;2023-07-20T06:56:45;14.60;99.90
18823;DHT22;9540;51.550;7.980;2023-07-20T06:59:13;14.60;99.90
18823;DHT22;9540;51.550;7.980;2023-07-20T07:01:40;14.60;99.90
18823;DHT22;9540;51.550;7.980;2023-07-20T07:04:07;14.60;99.90
18823;DHT22;9540;51.550;7.980;2023-07-20T07:06:35;14.70;99.90
18823;DHT22;9540;51.550;7.980;2023-07-20T07:09:02;14.70;99.90
18823;DHT22;9540;51.550;7.980;2023-07-20T07:11:31;14.70;99.90
18823;DHT22;9540;51.550;7.980;2023-07-20T07:13:58;14.60;99.90
18823;DHT22;9540;51.550;7.980;2023-07-20T07:16:26;14.70;99.90
18823;DHT22;9540;51.550;7.980;2023-07-20T07:18:53;14.70;99.90
18823;DHT22;9540;51.550;7.980;2023-07-20T07:21:21;14.80;99.90
18823;DHT22;9540;51.550;7.980;2023-07-20T07:23:48;14.90;99.90
18823;DHT22;9540;51.550;7.980;2023-07-20T07:26:15;15.00;99.90
18823;DHT22;9540;51.550;7.980;2023-07-20T07:28:42;15.00;99.90
18823;DHT22;9540;51.550;7.980;2023-07-20T07:31:09;15.20;99.90
18823;DHT22;9540;51.550;7.980;2023-07-20T07:33:37;15.30;99.90
18823;DHT22;9540;51.550;7.980;2023-07-20T07:36:05;15.30;99.90
18823;DHT22;9540;51.550;7.980;2023-07-20T07:38:32;15.30;99.90
18823;DHT22;9540;51.550;7.980;2023-07-20T07:41:00;15.30;99.90
18823;DHT22;9540;51.550;7.980;2023-07-20T07:43:27;15.30;99.90
18823;DHT22;9540;51.550;7.980;2023-07-20T07:45:54;15.20;99.90
18823;DHT22;9540;51.550;7.980;2023-07-20T07:48:22;15.10;99.90
18823;DHT22;9540;51.550;7.980;2023-07-20T07:50:53;15.10;99.90
18823;DHT22;9540;51.550;7.980;2023-07-20T07:53:20;15.20;99.90
18823;DHT22;9540;51.550;7.980;2023-07-20T07:55:48;15.20;99.90
18823;DHT22;9540;51.550;7.980;2023-07-20T07:58:15;15.30;99.90
18823;DHT22;9540;51.550;7.980;2023-07-20T08:00:42;15.30;99.90
18823;DHT22;9540;51.550;7.980;2023-07-20T08:03:09;15.30;99.90
18823;DHT22;9540;51.550;7.980;2023-07-20T08:05:36;15.30;99.90
18823;DHT22;9540;51.550;7.980;2023-07-20T08:08:04;15.40;99.90
18823;DHT22;9540;51.550;7.980;2023-07-20T08:10:32;15.40;99.90
18823;DHT22;9540;51.550;7.980;2023-07-20T08:12:59;15.50;99.90
18823;DHT22;9540;51.550;7.980;2023-07-20T08:15:26;15.60;99.90
18823;DHT22;9540;51.550;7.980;2023-07-20T08:17:53;15.60;99.90
18823;DHT22;9540;51.550;7.980;2023-07-20T08:20:20;15.60;99.90
18823;DHT22;9540;51.550;7.980;2023-07-20T08:22:52;15.70;99.90
18823;DHT22;9540;51.550;7.980;2023-07-20T08:25:20;15.70;99.90
18823;DHT22;9540;51.550;7.980;2023-07-20T08:27:47;15.70;99.90
18823;DHT22;9540;51.550;7.980;2023-07-20T08:30:14;15.60;99.90
18823;DHT22;9540;51.550;7.980;2023-07-20T08:32:41;15.50;99.90
18823;DHT22;9540;51.550;7.980;2023-07-20T08:35:08;15.50;99.90
18823;DHT22;9540;51.550;7.980;2023-07-20T08:37:35;15.70;99.90
18823;DHT22;9540;51.550;7.980;2023-07-20T08:40:03;16.00;99.90
18823;DHT22;9540;51.550;7.980;2023-07-20T08:42:35;16.00;99.90
18823;DHT22;9540;51.550;7.980;2023-07-20T08:45:06;16.00;99.90
18823;DHT22;9540;51.550;7.980;2023-07-20T08:47:35;16.00;99.90
18823;DHT22;9540;51.550;7.980;2023-07-20T08:50:02;15.90;99.90
18823;DHT22;9540;51.550;7.980;2023-07-20T08:52:34;15.80;99.90
18823;DHT22;9540;51.550;7.980;2023-07-20T08:55:01;15.80;99.90
18823;DHT22;9540;51.550;7.980;2023-07-20T08:57:31;15.70;99.90
18823;DHT22;9540;51.550;7.980;2023-07-20T09:00:02;15.60;99.90
18823;DHT22;9540;51.550;7.980;2023-07-20T09:02:35;15.60;99.90
18823;DHT22;9540;51.550;7.980;2023-07-20T09:05:08;15.70;99.90
18823;DHT22;9540;51.550;7.980;2023-07-20T09:07:36;15.80;99.90
18823;DHT22;9540;51.550;7.980;2023-07-20T09:10:04;16.00;99.90
18823;DHT22;9540;51.550;7.980;2023-07-20T09:12:31;16.10;99.90
18823;DHT22;9540;51.550;7.980;2023-07-20T09:15:00;16.20;99.90
18823;DHT22;9540;51.550;7.980;2023-07-20T09:17:27;16.20;99.90
18823;DHT22;9540;51.550;7.980;2023-07-20T09:19:55;16.30;99.90
18823;DHT22;9540;51.550;7.980;2023-07-20T09:22:22;16.30;99.90
18823;DHT22;9540;51.550;7.980;2023-07-20T09:24:52;16.50;99.90
18823;DHT22;9540;51.550;7.980;2023-07-20T09:27:19;16.50;99.90
18823;DHT22;9540;51.550;7.980;2023-07-20T09:29:47;16.40;99.90
18823;DHT22;9540;51.550;7.980;2023-07-20T09:32:18;16.20;99.90
18823;DHT22;9540;51.550;7.980;2023-07-20T09:34:46;16.20;99.90
18823;DHT22;9540;51.550;7.980;2023-07-20T09:37:13;16.10;99.90
18823;DHT22;9540;51.550;7.980;2023-07-20T09:39:44;16.00;99.90
18823;DHT22;9540;51.550;7.980;2023-07-20T09:42:12;16.10;99.90
18823;DHT22;9540;51.550;7.980;2023-07-20T09:44:45;16.10;99.90
18823;DHT22;9540;51.550;7.980;2023-07-20T09:47:13;16.30;99.90
18823;DHT22;9540;51.550;7.980;2023-07-20T10:06:42;16.90;99.90
18823;DHT22;9540;51.550;7.980;2023-07-20T10:09:10;17.00;99.90
18823;DHT22;9540;51.550;7.980;2023-07-20T10:11:43;17.10;99.90
18823;DHT22;9540;51.550;7.980;2023-07-20T10:14:12;17.20;99.90
18823;DHT22;9540;51.550;7.980;2023-07-20T10:16:44;17.00;99.90
18823;DHT22;9540;51.550;7.980;2023-07-20T10:19:20;17.20;99.90
18823;DHT22;9540;51.550;7.980;2023-07-20T10:21:56;17.20;99.90
18823;DHT22;9540;51.550;7.980;2023-07-20T10:24:24;17.40;99.90
18823;DHT22;9540;51.550;7.980;2023-07-20T10:26:51;17.40;99.90
18823;DHT22;9540;51.550;7.980;2023-07-20T10:29:19;17.50;99.90
18823;DHT22;9540;51.550;7.980;2023-07-20T10:31:46;17.50;99.90
18823;DHT22;9540;51.550;7.980;2023-07-20T10:34:14;17.40;99.90
18823;DHT22;9540;51.550;7.980;2023-07-20T10:36:44;17.30;99.90
18823;DHT22;9540;51.550;7.980;2023-07-20T10:39:23;17.40;99.90
18823;DHT22;9540;51.550;7.980;2023-07-20T10:42:00;17.50;99.90
18823;DHT22;9540;51.550;7.980;2023-07-20T10:44:27;17.70;99.90
18823;DHT22;9540;51.550;7.980;2023-07-20T10:46:59;17.70;99.90
18823;DHT22;9540;51.550;7.980;2023-07-20T10:49:27;17.80;99.90
18823;DHT22;9540;51.550;7.980;2023-07-20T10:51:58;17.80;99.90
18823;DHT22;9540;51.550;7.980;2023-07-20T10:54:47;17.90;99.90
18823;DHT22;9540;51.550;7.980;2023-07-20T10:57:23;18.10;99.90
18823;DHT22;9540;51.550;7.980;2023-07-20T10:59:50;18.20;99.90
18823;DHT22;9540;51.550;7.980;2023-07-20T11:02:18;18.40;99.90
18823;DHT22;9540;51.550;7.980;2023-07-20T11:04:47;18.50;99.90
18823;DHT22;9540;51.550;7.980;2023-07-20T11:07:20;18.60;99.90
18823;DHT22;9540;51.550;7.980;2023-07-20T11:10:14;18.70;99.90
18823;DHT22;9540;51.550;7.980;2023-07-20T11:12:42;18.70;99.90
18823;DHT22;9540;51.550;7.980;2023-07-20T11:15:44;18.90;99.90
18823;DHT22;9540;51.550;7.980;2023-07-20T11:18:12;19.00;99.90
18823;DHT22;9540;51.550;7.980;2023-07-20T11:20:40;19.00;99.90
18823;DHT22;9540;51.550;7.980;2023-07-20T11:23:08;19.00;99.90
18823;DHT22;9540;51.550;7.980;2023-07-20T11:25:40;18.80;99.90
18823;DHT22;9540;51.550;7.980;2023-07-20T11:28:08;18.60;99.90
18823;DHT22;9540;51.550;7.980;2023-07-20T11:30:36;18.30;99.90
18823;DHT22;9540;51.550;7.980;2023-07-20T11:33:04;18.20;99.90
18823;DHT22;9540;51.550;7.980;2023-07-20T11:35:34;18.40;99.90
18823;DHT22;9540;51.550;7.980;2023-07-20T11:38:02;18.60;99.90
18823;DHT22;9540;51.550;7.980;2023-07-20T11:40:29;18.80;99.90
18823;DHT22;9540;51.550;7.980;2023-07-20T11:42:57;19.10;99.90
18823;DHT22;9540;51.550;7.980;2023-07-20T11:45:25;19.40;99.90
18823;DHT22;9540;51.550;7.980;2023-07-20T11:47:53;19.60;99.90
18823;DHT22;9540;51.550;7.980;2023-07-20T11:50:20;19.80;99.90
18823;DHT22;9540;51.550;7.980;2023-07-20T11:52:47;20.10;99.90
18823;DHT22;9540;51.550;7.980;2023-07-20T11:55:15;20.30;99.90
18823;DHT22;9540;51.550;7.980;2023-07-20T11:58:02;20.20;99.90
18823;DHT22;9540;51.550;7.980;2023-07-20T12:00:29;20.10;99.90
18823;DHT22;9540;51.550;7.980;2023-07-20T12:02:59;19.90;99.90
18823;DHT22;9540;51.550;7.980;2023-07-20T12:05:26;19.80;99.90
18823;DHT22;9540;51.550;7.980;2023-07-20T12:07:54;19.60;99.90
18823;DHT22;9540;51.550;7.980;2023-07-20T12:10:25;19.40;99.90
18823;DHT22;9540;51.550;7.980;2023-07-20T12:12:53;19.40;99.90
18823;DHT22;9540;51.550;7.980;2023-07-20T12:15:22;19.60;99.90
18823;DHT22;9540;51.550;7.980;2023-07-20T12:17:50;19.80;99.90
18823;DHT22;9540;51.550;7.980;2023-07-20T12:20:25;19.90;99.90
18823;DHT22;9540;51.550;7.980;2023-07-20T12:22:52;20.10;99.90
18823;DHT22;9540;51.550;7.980;2023-07-20T12:25:19;20.30;99.90
18823;DHT22;9540;51.550;7.980;2023-07-20T12:27:48;20.50;99.90
18823;DHT22;9540;51.550;7.980;2023-07-20T12:30:15;20.70;99.90
18823;DHT22;9540;51.550;7.980;2023-07-20T12:32:43;20.70;99.90
18823;DHT22;9540;51.550;7.980;2023-07-20T12:35:11;20.80;99.90
18823;DHT22;9540;51.550;7.980;2023-07-20T12:37:40;20.80;99.90
18823;DHT22;9540;51.550;7.980;2023-07-20T12:40:08;20.80;99.90
18823;DHT22;9540;51.550;7.980;2023-07-20T12:42:36;20.90;99.90
18823;DHT22;9540;51.550;7.980;2023-07-20T12:45:05;20.90;99.90
18823;DHT22;9540;51.550;7.980;2023-07-20T12:47:32;20.90;99.90
18823;DHT22;9540;51.550;7.980;2023-07-20T12:50:00;20.90;99.90
18823;DHT22;9540;51.550;7.980;2023-07-20T12:52:29;20.90;99.90
18823;DHT22;9540;51.550;7.980;2023-07-20T12:54:57;21.00;99.90
18823;DHT22;9540;51.550;7.980;2023-07-20T12:57:24;21.10;99.90
18823;DHT22;9540;51.550;7.980;2023-07-20T12:59:51;21.10;99.90
18823;DHT22;9540;51.550;7.980;2023-07-20T13:02:18;21.10;99.90
18823;DHT22;9540;51.550;7.980;2023-07-20T13:04:45;21.20;99.90
18823;DHT22;9540;51.550;7.980;2023-07-20T13:07:13;21.20;99.90
18823;DHT22;9540;51.550;7.980;2023-07-20T13:09:40;21.40;99.90
18823;DHT22;9540;51.550;7.980;2023-07-20T13:12:08;21.50;99.90
18823;DHT22;9540;51.550;7.980;2023-07-20T13:14:35;21.60;99.90
18823;DHT22;9540;51.550;7.980;2023-07-20T13:17:02;21.70;99.90
18823;DHT22;9540;51.550;7.980;2023-07-20T13:19:29;21.90;99.90
18823;DHT22;9540;51.550;7.980;2023-07-20T13:21:56;21.90;99.90
18823;DHT22;9540;51.550;7.980;2023-07-20T13:24:25;22.00;99.90
18823;DHT22;9540;51.550;7.980;2023-07-20T13:26:51;22.00;99.90
18823;DHT22;9540;51.550;7.980;2023-07-20T13:29:18;21.80;99.90
18823;DHT22;9540;51.550;7.980;2023-07-20T13:31:45;21.50;99.90
18823;DHT22;9540;51.550;7.980;2023-07-20T13:34:13;21.30;99.90
18823;DHT22;9540;51.550;7.980;2023-07-20T13:36:40;21.20;99.90
18823;DHT22;9540;51.550;7.980;2023-07-20T13:39:07;21.20;99.90
18823;DHT22;9540;51.550;7.980;2023-07-20T13:41:35;21.30;99.90
18823;DHT22;9540;51.550;7.980;2023-07-20T13:44:03;21.40;99.00
18823;DHT22;9540;51.550;7.980;2023-07-20T13:46:30;21.50;97.80
18823;DHT22;9540;51.550;7.980;2023-07-20T13:48:57;21.60;99.90
18823;DHT22;9540;51.550;7.980;2023-07-20T13:51:24;21.70;99.90
18823;DHT22;9540;51.550;7.980;2023-07-20T13:53:51;21.80;99.90
18823;DHT22;9540;51.550;7.980;2023-07-20T13:56:17;21.90;99.90
18823;DHT22;9540;51.550;7.980;2023-07-20T13:58:46;21.90;99.90
18823;DHT22;9540;51.550;7.980;2023-07-20T14:01:13;21.80;96.70
18823;DHT22;9540;51.550;7.980;2023-07-20T14:03:40;21.80;99.50
18823;DHT22;9540;51.550;7.980;2023-07-20T14:06:07;21.90;99.90
18823;DHT22;9540;51.550;7.980;2023-07-20T14:08:34;21.90;96.90
18823;DHT22;9540;51.550;7.980;2023-07-20T14:11:01;22.10;95.30
18823;DHT22;9540;51.550;7.980;2023-07-20T14:13:28;22.10;90.00
18823;DHT22;9540;51.550;7.980;2023-07-20T14:15:56;22.00;90.20
18823;DHT22;9540;51.550;7.980;2023-07-20T14:18:23;21.80;91.20
18823;DHT22;9540;51.550;7.980;2023-07-20T14:20:50;21.50;92.10
18823;DHT22;9540;51.550;7.980;2023-07-20T14:23:17;21.40;93.00
18823;DHT22;9540;51.550;7.980;2023-07-20T14:25:44;21.40;91.70
18823;DHT22;9540;51.550;7.980;2023-07-20T14:28:11;21.60;92.70
18823;DHT22;9540;51.550;7.980;2023-07-20T14:30:38;21.80;90.90
18823;DHT22;9540;51.550;7.980;2023-07-20T14:33:07;22.00;90.00
18823;DHT22;9540;51.550;7.980;2023-07-20T14:35:34;22.10;89.00
18823;DHT22;9540;51.550;7.980;2023-07-20T14:38:01;22.20;91.10
18823;DHT22;9540;51.550;7.980;2023-07-20T14:40:28;22.20;92.70
18823;DHT22;9540;51.550;7.980;2023-07-20T14:42:55;22.20;91.10
18823;DHT22;9540;51.550;7.980;2023-07-20T14:45:22;22.20;88.90
18823;DHT22;9540;51.550;7.980;2023-07-20T14:47:49;22.00;88.10
18823;DHT22;9540;51.550;7.980;2023-07-20T14:50:21;22.00;88.40
18823;DHT22;9540;51.550;7.980;2023-07-20T14:52:48;22.00;88.80
18823;DHT22;9540;51.550;7.980;2023-07-20T14:55:15;21.90;90.30
18823;DHT22;9540;51.550;7.980;2023-07-20T14:57:42;21.80;90.40
18823;DHT22;9540;51.550;7.980;2023-07-20T15:00:10;21.90;92.30
18823;DHT22;9540;51.550;7.980;2023-07-20T15:02:37;22.00;90.70
18823;DHT22;9540;51.550;7.980;2023-07-20T15:05:07;21.80;89.60
18823;DHT22;9540;51.550;7.980;2023-07-20T15:07:35;21.70;91.00
18823;DHT22;9540;51.550;7.980;2023-07-20T15:10:03;21.60;92.20
18823;DHT22;9540;51.550;7.980;2023-07-20T15:12:30;21.50;95.80
18823;DHT22;9540;51.550;7.980;2023-07-20T15:15:05;21.50;95.90
18823;DHT22;9540;51.550;7.980;2023-07-20T15:17:33;21.50;97.00
18823;DHT22;9540;51.550;7.980;2023-07-20T15:20:01;21.50;99.90
18823;DHT22;9540;51.550;7.980;2023-07-20T15:22:30;21.60;96.30
18823;DHT22;9540;51.550;7.980;2023-07-20T15:24:59;21.80;92.40
18823;DHT22;9540;51.550;7.980;2023-07-20T15:27:26;22.10;93.20
18823;DHT22;9540;51.550;7.980;2023-07-20T15:29:53;22.30;92.80
18823;DHT22;9540;51.550;7.980;2023-07-20T15:32:20;22.40;92.60
18823;DHT22;9540;51.550;7.980;2023-07-20T15:34:47;22.30;92.20
18823;DHT22;9540;51.550;7.980;2023-07-20T15:37:15;22.10;92.80
18823;DHT22;9540;51.550;7.980;2023-07-20T15:39:41;22.20;93.60
18823;DHT22;9540;51.550;7.980;2023-07-20T15:42:10;22.20;93.00
18823;DHT22;9540;51.550;7.980;2023-07-20T15:44:37;22.20;93.00
18823;DHT22;9540;51.550;7.980;2023-07-20T15:47:04;22.30;93.40
18823;DHT22;9540;51.550;7.980;2023-07-20T15:49:32;22.20;92.60
18823;DHT22;9540;51.550;7.980;2023-07-20T15:52:00;22.20;93.20
18823;DHT22;9540;51.550;7.980;2023-07-20T15:54:27;22.10;93.10
18823;DHT22;9540;51.550;7.980;2023-07-20T15:56:54;22.20;92.30
18823;DHT22;9540;51.550;7.980;2023-07-20T15:59:23;22.20;92.20
18823;DHT22;9540;51.550;7.980;2023-07-20T16:01:50;22.10;92.20
18823;DHT22;9540;51.550;7.980;2023-07-20T16:04:16;22.00;92.40
18823;DHT22;9540;51.550;7.980;2023-07-20T16:06:43;21.90;94.10
18823;DHT22;9540;51.550;7.980;2023-07-20T16:09:10;21.70;95.30
18823;DHT22;9540;51.550;7.980;2023-07-20T16:11:37;21.50;96.00